Thursday, June 21, 2018, 12:13 PM EDT
Back to Local

KBML, Berlin Municipal Airport

Location: Milan, NH, United States Lat: 44.583
Local Time: 12:13 PM EDT (16:13 GMT) Lon: -71.183
Time Zone: US/Eastern Elev: 1158 ft

Show me the last for .
Show Decoded

2018-06-21 11:52 METAR KBML 211552Z AUTO 34008KT 10SM CLR 21/06 A2983 RMK AO2 SLP099 T02110056 =
2018-06-21 10:52 METAR KBML 211452Z AUTO 34012G17KT 10SM CLR 21/06 A2983 RMK AO2 SLP100 T02110061
                 51006 =
2018-06-21 09:52 METAR KBML 211352Z AUTO VRB06KT 10SM CLR 20/08 A2983 RMK AO2 SLP098 T02000078 =
2018-06-21 08:52 METAR KBML 211252Z AUTO VRB05KT 10SM CLR 19/07 A2982 RMK AO2 SLP098 T01890072 =
2018-06-21 07:52 METAR KBML 211152Z AUTO 33005KT 10SM CLR 18/09 A2981 RMK AO2 SLP091 T01780089
                 10189 20139 51017 =
2018-06-21 06:52 METAR KBML 211052Z AUTO 34005KT 10SM OVC043 16/11 A2980 RMK AO2 SLP088 T01610106
                 =
2018-06-21 05:52 METAR KBML 210952Z AUTO 00000KT 10SM FEW032 BKN041 16/13 A2978 RMK AO2 SLP081
                 T01560128 =
2018-06-21 04:52 METAR KBML 210852Z AUTO 00000KT 10SM OVC035 17/13 A2976 RMK AO2 SLP073 T01720128
                 53003 =
2018-06-21 03:52 METAR KBML 210752Z AUTO VRB03KT 10SM OVC038 18/13 A2975 RMK AO2 SLP068 T01780133
                 =
2018-06-21 02:52 METAR KBML 210652Z AUTO VRB03KT 10SM CLR 18/12 A2975 RMK AO2 SLP069 T01830122 =
2018-06-21 01:52 METAR KBML 210552Z AUTO 30006KT 10SM BKN100 19/12 A2975 RMK AO2 SLP070 T01890117
                 10222 20128 58002 =
2018-06-21 00:52 METAR KBML 210452Z AUTO 00000KT 10SM SCT070 BKN080 14/12 A2976 RMK AO2 SLP073
                 T01440122 402560028 =
2018-06-20 23:52 METAR KBML 210352Z AUTO 00000KT 10SM BKN065 OVC090 15/12 A2976 RMK AO2 SLP074
                 T01500122 =
2018-06-20 22:52 METAR KBML 210252Z AUTO 00000KT 10SM BKN070 14/12 A2976 RMK AO2 SLP075 T01390117
                 50003 =
2018-06-20 21:52 METAR KBML 210152Z AUTO 00000KT 10SM SCT065 SCT120 15/12 A2976 RMK AO2 SLP077
                 T01500117 =
2018-06-20 20:52 METAR KBML 210052Z AUTO 00000KT 10SM SCT065 16/12 A2976 RMK AO2 SLP075 T01560117
                 =
2018-06-20 19:52 METAR KBML 202352Z AUTO 00000KT 10SM CLR 22/08 A2975 RMK AO2 SLP071 T02220083
                 10256 20222 55001 =
2018-06-20 18:52 METAR KBML 202252Z AUTO VRB04KT 10SM CLR 24/08 A2975 RMK AO2 SLP073 T02390083 =
2018-06-20 17:52 METAR KBML 202152Z AUTO VRB05KT 10SM CLR 25/08 A2974 RMK AO2 SLP072 T02500083 =
2018-06-20 16:52 METAR KBML 202052Z AUTO VRB06KT 10SM CLR 25/08 A2975 RMK AO2 SLP076 T02500083
                 56014 =
2018-06-20 15:52 METAR KBML 201952Z AUTO VRB05KT 10SM CLR 25/10 A2976 RMK AO2 SLP079 T02500100 =
2018-06-20 14:52 METAR KBML 201852Z AUTO VRB04KT 10SM CLR 25/09 A2978 RMK AO2 SLP086 T02500094 =
2018-06-20 13:52 METAR KBML 201752Z AUTO VRB05G15KT 10SM CLR 24/09 A2980 RMK AO2 SLP090 T02440094
                 10250 20128 58018 =
2018-06-20 12:52 METAR KBML 201652Z AUTO VRB03KT 10SM CLR 23/10 A2981 RMK AO2 SLP097 T02330100 =

Support USWX by starting your Amazon purchase here.